sensor_id;sensor_type;location;lat;lon;timestamp;P1;durP1;ratioP1;P2;durP2;ratioP2
76332;SDS011;71254;53.010;6.508;2024-03-08T00:01:47;33.00;;;20.25;;
76332;SDS011;71254;53.010;6.508;2024-03-08T00:04:13;34.17;;;20.23;;
76332;SDS011;71254;53.010;6.508;2024-03-08T00:06:40;35.03;;;20.92;;
76332;SDS011;71254;53.010;6.508;2024-03-08T00:09:06;37.38;;;20.60;;
76332;SDS011;71254;53.010;6.508;2024-03-08T00:11:33;34.92;;;19.67;;
76332;SDS011;71254;53.010;6.508;2024-03-08T00:14:00;35.10;;;21.35;;
76332;SDS011;71254;53.010;6.508;2024-03-08T00:16:25;37.17;;;21.60;;
76332;SDS011;71254;53.010;6.508;2024-03-08T00:18:51;36.17;;;21.42;;
76332;SDS011;71254;53.010;6.508;2024-03-08T00:21:16;36.30;;;20.42;;
76332;SDS011;71254;53.010;6.508;2024-03-08T00:23:42;33.78;;;20.23;;
76332;SDS011;71254;53.010;6.508;2024-03-08T00:26:08;33.83;;;21.27;;
76332;SDS011;71254;53.010;6.508;2024-03-08T00:28:33;35.50;;;20.20;;
76332;SDS011;71254;53.010;6.508;2024-03-08T00:30:59;36.67;;;21.33;;
76332;SDS011;71254;53.010;6.508;2024-03-08T00:33:25;39.53;;;21.55;;
76332;SDS011;71254;53.010;6.508;2024-03-08T00:35:52;33.60;;;21.05;;
76332;SDS011;71254;53.010;6.508;2024-03-08T00:38:21;37.30;;;20.98;;
76332;SDS011;71254;53.010;6.508;2024-03-08T00:40:47;35.22;;;20.33;;
76332;SDS011;71254;53.010;6.508;2024-03-08T00:43:12;35.28;;;21.30;;
76332;SDS011;71254;53.010;6.508;2024-03-08T00:45:38;37.58;;;21.75;;
76332;SDS011;71254;53.010;6.508;2024-03-08T00:48:07;37.97;;;22.27;;
76332;SDS011;71254;53.010;6.508;2024-03-08T00:50:33;39.10;;;21.90;;
76332;SDS011;71254;53.010;6.508;2024-03-08T00:52:59;33.38;;;21.00;;
76332;SDS011;71254;53.010;6.508;2024-03-08T00:55:25;37.53;;;21.83;;
76332;SDS011;71254;53.010;6.508;2024-03-08T00:57:51;33.97;;;20.52;;
76332;SDS011;71254;53.010;6.508;2024-03-08T01:00:18;35.55;;;21.08;;
76332;SDS011;71254;53.010;6.508;2024-03-08T01:02:45;36.85;;;21.60;;
76332;SDS011;71254;53.010;6.508;2024-03-08T01:05:11;41.05;;;22.25;;
76332;SDS011;71254;53.010;6.508;2024-03-08T01:07:36;33.17;;;20.52;;
76332;SDS011;71254;53.010;6.508;2024-03-08T01:10:03;36.60;;;21.60;;
76332;SDS011;71254;53.010;6.508;2024-03-08T01:12:28;41.95;;;23.00;;
76332;SDS011;71254;53.010;6.508;2024-03-08T01:14:55;38.80;;;22.30;;
76332;SDS011;71254;53.010;6.508;2024-03-08T01:17:21;38.92;;;22.67;;
76332;SDS011;71254;53.010;6.508;2024-03-08T01:19:46;35.97;;;21.10;;
76332;SDS011;71254;53.010;6.508;2024-03-08T01:22:12;37.10;;;22.20;;
76332;SDS011;71254;53.010;6.508;2024-03-08T01:24:38;37.25;;;21.58;;
76332;SDS011;71254;53.010;6.508;2024-03-08T01:27:03;43.13;;;23.13;;
76332;SDS011;71254;53.010;6.508;2024-03-08T01:29:29;37.67;;;21.02;;
76332;SDS011;71254;53.010;6.508;2024-03-08T01:31:55;39.63;;;22.88;;
76332;SDS011;71254;53.010;6.508;2024-03-08T01:34:21;39.75;;;22.95;;
76332;SDS011;71254;53.010;6.508;2024-03-08T01:36:50;43.47;;;23.25;;
76332;SDS011;71254;53.010;6.508;2024-03-08T01:39:15;40.22;;;23.38;;
76332;SDS011;71254;53.010;6.508;2024-03-08T01:41:42;39.50;;;22.02;;
76332;SDS011;71254;53.010;6.508;2024-03-08T01:44:07;37.05;;;21.75;;
76332;SDS011;71254;53.010;6.508;2024-03-08T01:46:34;41.40;;;20.98;;
76332;SDS011;71254;53.010;6.508;2024-03-08T01:49:00;44.28;;;23.95;;
76332;SDS011;71254;53.010;6.508;2024-03-08T01:51:26;40.58;;;22.90;;
76332;SDS011;71254;53.010;6.508;2024-03-08T01:53:53;38.70;;;21.77;;
76332;SDS011;71254;53.010;6.508;2024-03-08T01:56:22;39.53;;;23.20;;
76332;SDS011;71254;53.010;6.508;2024-03-08T01:58:50;44.20;;;24.58;;
76332;SDS011;71254;53.010;6.508;2024-03-08T02:01:16;41.67;;;22.83;;
76332;SDS011;71254;53.010;6.508;2024-03-08T02:03:44;42.55;;;23.58;;
76332;SDS011;71254;53.010;6.508;2024-03-08T02:06:13;41.63;;;22.15;;
76332;SDS011;71254;53.010;6.508;2024-03-08T02:08:45;43.63;;;23.33;;
76332;SDS011;71254;53.010;6.508;2024-03-08T02:11:12;37.95;;;22.40;;
76332;SDS011;71254;53.010;6.508;2024-03-08T02:13:37;42.25;;;23.33;;
76332;SDS011;71254;53.010;6.508;2024-03-08T02:16:03;39.97;;;23.60;;
76332;SDS011;71254;53.010;6.508;2024-03-08T02:18:33;39.25;;;22.90;;
76332;SDS011;71254;53.010;6.508;2024-03-08T02:20:59;40.25;;;23.75;;
76332;SDS011;71254;53.010;6.508;2024-03-08T02:23:27;40.83;;;23.52;;
76332;SDS011;71254;53.010;6.508;2024-03-08T02:25:53;44.35;;;24.25;;
76332;SDS011;71254;53.010;6.508;2024-03-08T02:28:20;41.75;;;22.25;;
76332;SDS011;71254;53.010;6.508;2024-03-08T02:30:46;39.70;;;22.92;;
76332;SDS011;71254;53.010;6.508;2024-03-08T02:33:13;41.10;;;22.40;;
76332;SDS011;71254;53.010;6.508;2024-03-08T02:35:43;41.55;;;24.05;;
76332;SDS011;71254;53.010;6.508;2024-03-08T02:38:11;39.40;;;22.92;;
76332;SDS011;71254;53.010;6.508;2024-03-08T02:40:41;43.13;;;24.02;;
76332;SDS011;71254;53.010;6.508;2024-03-08T02:43:08;43.33;;;23.35;;
76332;SDS011;71254;53.010;6.508;2024-03-08T02:45:34;38.03;;;21.67;;
76332;SDS011;71254;53.010;6.508;2024-03-08T02:48:00;41.25;;;23.55;;
76332;SDS011;71254;53.010;6.508;2024-03-08T02:50:25;38.17;;;22.50;;
76332;SDS011;71254;53.010;6.508;2024-03-08T02:52:51;40.10;;;22.63;;
76332;SDS011;71254;53.010;6.508;2024-03-08T02:55:17;37.95;;;22.70;;
76332;SDS011;71254;53.010;6.508;2024-03-08T02:57:42;38.88;;;22.33;;
76332;SDS011;71254;53.010;6.508;2024-03-08T03:00:09;40.38;;;23.20;;
76332;SDS011;71254;53.010;6.508;2024-03-08T03:02:35;43.75;;;24.13;;
76332;SDS011;71254;53.010;6.508;2024-03-08T03:05:01;44.50;;;23.50;;
76332;SDS011;71254;53.010;6.508;2024-03-08T03:07:31;37.65;;;23.60;;
76332;SDS011;71254;53.010;6.508;2024-03-08T03:09:58;41.17;;;24.38;;
76332;SDS011;71254;53.010;6.508;2024-03-08T03:12:25;42.55;;;24.95;;
76332;SDS011;71254;53.010;6.508;2024-03-08T03:14:55;40.53;;;23.40;;
76332;SDS011;71254;53.010;6.508;2024-03-08T03:17:22;39.05;;;22.05;;
76332;SDS011;71254;53.010;6.508;2024-03-08T03:19:51;44.38;;;24.65;;
76332;SDS011;71254;53.010;6.508;2024-03-08T03:22:18;45.20;;;23.45;;
76332;SDS011;71254;53.010;6.508;2024-03-08T03:24:47;40.22;;;23.90;;
76332;SDS011;71254;53.010;6.508;2024-03-08T03:27:13;38.80;;;21.90;;
76332;SDS011;71254;53.010;6.508;2024-03-08T03:29:40;42.00;;;24.05;;
76332;SDS011;71254;53.010;6.508;2024-03-08T03:32:13;42.67;;;25.02;;
76332;SDS011;71254;53.010;6.508;2024-03-08T03:34:40;41.60;;;23.40;;
76332;SDS011;71254;53.010;6.508;2024-03-08T03:37:08;43.95;;;24.75;;
76332;SDS011;71254;53.010;6.508;2024-03-08T03:39:37;40.40;;;22.45;;
76332;SDS011;71254;53.010;6.508;2024-03-08T03:42:14;39.45;;;23.08;;
76332;SDS011;71254;53.010;6.508;2024-03-08T03:44:46;41.53;;;24.38;;
76332;SDS011;71254;53.010;6.508;2024-03-08T03:47:12;38.38;;;22.05;;
76332;SDS011;71254;53.010;6.508;2024-03-08T03:49:39;42.60;;;24.17;;
76332;SDS011;71254;53.010;6.508;2024-03-08T03:52:05;38.83;;;23.73;;
76332;SDS011;71254;53.010;6.508;2024-03-08T03:54:31;40.80;;;23.77;;
76332;SDS011;71254;53.010;6.508;2024-03-08T03:56:57;38.97;;;22.48;;
76332;SDS011;71254;53.010;6.508;2024-03-08T03:59:23;39.53;;;22.67;;
76332;SDS011;71254;53.010;6.508;2024-03-08T04:01:49;41.45;;;23.00;;
76332;SDS011;71254;53.010;6.508;2024-03-08T04:04:15;40.88;;;22.05;;
76332;SDS011;71254;53.010;6.508;2024-03-08T04:06:41;39.22;;;22.60;;
76332;SDS011;71254;53.010;6.508;2024-03-08T04:09:07;37.53;;;22.42;;
76332;SDS011;71254;53.010;6.508;2024-03-08T04:11:32;40.70;;;24.00;;
76332;SDS011;71254;53.010;6.508;2024-03-08T04:13:58;41.10;;;23.25;;
76332;SDS011;71254;53.010;6.508;2024-03-08T04:16:24;38.03;;;22.10;;
76332;SDS011;71254;53.010;6.508;2024-03-08T04:18:51;38.33;;;22.02;;
76332;SDS011;71254;53.010;6.508;2024-03-08T04:21:17;40.60;;;23.63;;
76332;SDS011;71254;53.010;6.508;2024-03-08T04:23:44;39.03;;;21.75;;
76332;SDS011;71254;53.010;6.508;2024-03-08T04:26:10;38.20;;;22.48;;
76332;SDS011;71254;53.010;6.508;2024-03-08T04:28:38;39.88;;;21.75;;
76332;SDS011;71254;53.010;6.508;2024-03-08T04:31:04;45.08;;;22.15;;
76332;SDS011;71254;53.010;6.508;2024-03-08T04:33:31;39.28;;;22.17;;
76332;SDS011;71254;53.010;6.508;2024-03-08T04:35:57;38.78;;;22.52;;
76332;SDS011;71254;53.010;6.508;2024-03-08T04:38:23;39.80;;;21.27;;
76332;SDS011;71254;53.010;6.508;2024-03-08T04:40:50;39.70;;;22.17;;
76332;SDS011;71254;53.010;6.508;2024-03-08T04:43:16;39.15;;;22.20;;
76332;SDS011;71254;53.010;6.508;2024-03-08T04:45:43;38.35;;;21.60;;
76332;SDS011;71254;53.010;6.508;2024-03-08T04:48:09;36.45;;;20.50;;
76332;SDS011;71254;53.010;6.508;2024-03-08T04:50:36;41.53;;;22.40;;
76332;SDS011;71254;53.010;6.508;2024-03-08T04:53:03;38.13;;;21.45;;
76332;SDS011;71254;53.010;6.508;2024-03-08T04:55:33;40.38;;;21.83;;
76332;SDS011;71254;53.010;6.508;2024-03-08T04:57:59;36.80;;;21.23;;
76332;SDS011;71254;53.010;6.508;2024-03-08T05:00:24;37.92;;;20.92;;
76332;SDS011;71254;53.010;6.508;2024-03-08T05:02:50;42.42;;;22.30;;
76332;SDS011;71254;53.010;6.508;2024-03-08T05:05:18;40.33;;;22.20;;
76332;SDS011;71254;53.010;6.508;2024-03-08T05:07:44;35.88;;;21.35;;
76332;SDS011;71254;53.010;6.508;2024-03-08T05:10:10;38.70;;;21.92;;
76332;SDS011;71254;53.010;6.508;2024-03-08T05:12:36;39.00;;;21.50;;
76332;SDS011;71254;53.010;6.508;2024-03-08T05:15:04;38.08;;;21.13;;
76332;SDS011;71254;53.010;6.508;2024-03-08T05:17:30;37.90;;;22.33;;
76332;SDS011;71254;53.010;6.508;2024-03-08T05:19:56;37.85;;;20.50;;
76332;SDS011;71254;53.010;6.508;2024-03-08T05:22:21;33.63;;;21.30;;
76332;SDS011;71254;53.010;6.508;2024-03-08T05:24:47;33.78;;;21.25;;
76332;SDS011;71254;53.010;6.508;2024-03-08T05:27:13;36.63;;;21.42;;
76332;SDS011;71254;53.010;6.508;2024-03-08T05:29:38;39.90;;;21.55;;
76332;SDS011;71254;53.010;6.508;2024-03-08T05:32:04;39.95;;;21.77;;
76332;SDS011;71254;53.010;6.508;2024-03-08T05:34:30;38.97;;;22.08;;
76332;SDS011;71254;53.010;6.508;2024-03-08T05:36:55;37.80;;;22.05;;
76332;SDS011;71254;53.010;6.508;2024-03-08T05:39:23;35.55;;;21.00;;
76332;SDS011;71254;53.010;6.508;2024-03-08T05:41:49;36.15;;;21.52;;
76332;SDS011;71254;53.010;6.508;2024-03-08T05:44:15;36.40;;;21.25;;
76332;SDS011;71254;53.010;6.508;2024-03-08T05:46:44;37.97;;;21.27;;
76332;SDS011;71254;53.010;6.508;2024-03-08T05:49:11;32.67;;;20.58;;
76332;SDS011;71254;53.010;6.508;2024-03-08T05:51:37;34.70;;;20.90;;
76332;SDS011;71254;53.010;6.508;2024-03-08T05:54:05;36.80;;;20.40;;
76332;SDS011;71254;53.010;6.508;2024-03-08T05:56:38;38.92;;;23.02;;
76332;SDS011;71254;53.010;6.508;2024-03-08T05:59:05;38.80;;;21.55;;
76332;SDS011;71254;53.010;6.508;2024-03-08T06:01:31;34.90;;;20.52;;
76332;SDS011;71254;53.010;6.508;2024-03-08T06:03:57;37.53;;;21.95;;
76332;SDS011;71254;53.010;6.508;2024-03-08T06:06:23;38.42;;;21.23;;
76332;SDS011;71254;53.010;6.508;2024-03-08T06:08:49;33.38;;;20.48;;
76332;SDS011;71254;53.010;6.508;2024-03-08T06:11:16;41.55;;;21.40;;
76332;SDS011;71254;53.010;6.508;2024-03-08T06:13:48;39.33;;;20.95;;
76332;SDS011;71254;53.010;6.508;2024-03-08T06:16:15;38.33;;;21.38;;
76332;SDS011;71254;53.010;6.508;2024-03-08T06:18:40;36.45;;;21.05;;
76332;SDS011;71254;53.010;6.508;2024-03-08T06:21:06;35.25;;;20.50;;
76332;SDS011;71254;53.010;6.508;2024-03-08T06:23:34;37.47;;;22.50;;
76332;SDS011;71254;53.010;6.508;2024-03-08T06:26:07;35.43;;;21.23;;
76332;SDS011;71254;53.010;6.508;2024-03-08T06:28:33;36.35;;;20.23;;
76332;SDS011;71254;53.010;6.508;2024-03-08T06:30:59;42.25;;;22.55;;
76332;SDS011;71254;53.010;6.508;2024-03-08T06:33:26;36.35;;;22.25;;
76332;SDS011;71254;53.010;6.508;2024-03-08T06:35:52;35.67;;;20.38;;
76332;SDS011;71254;53.010;6.508;2024-03-08T06:38:19;35.80;;;20.88;;
76332;SDS011;71254;53.010;6.508;2024-03-08T06:40:45;33.33;;;20.10;;
76332;SDS011;71254;53.010;6.508;2024-03-08T06:43:13;32.80;;;20.67;;
76332;SDS011;71254;53.010;6.508;2024-03-08T06:45:41;34.50;;;20.05;;
76332;SDS011;71254;53.010;6.508;2024-03-08T06:48:10;36.47;;;21.23;;
76332;SDS011;71254;53.010;6.508;2024-03-08T06:50:36;33.60;;;20.50;;
76332;SDS011;71254;53.010;6.508;2024-03-08T06:53:01;32.70;;;20.77;;
76332;SDS011;71254;53.010;6.508;2024-03-08T06:55:28;36.38;;;20.48;;
76332;SDS011;71254;53.010;6.508;2024-03-08T06:57:54;38.03;;;22.42;;
76332;SDS011;71254;53.010;6.508;2024-03-08T07:00:19;31.85;;;19.88;;
76332;SDS011;71254;53.010;6.508;2024-03-08T07:02:45;35.35;;;21.38;;
76332;SDS011;71254;53.010;6.508;2024-03-08T07:05:11;34.97;;;21.48;;
76332;SDS011;71254;53.010;6.508;2024-03-08T07:07:37;35.45;;;20.42;;
76332;SDS011;71254;53.010;6.508;2024-03-08T07:10:03;35.72;;;20.50;;
76332;SDS011;71254;53.010;6.508;2024-03-08T07:12:29;33.08;;;19.83;;
76332;SDS011;71254;53.010;6.508;2024-03-08T07:14:55;33.03;;;20.13;;
76332;SDS011;71254;53.010;6.508;2024-03-08T07:17:20;36.22;;;21.50;;
76332;SDS011;71254;53.010;6.508;2024-03-08T07:19:46;33.28;;;20.40;;
76332;SDS011;71254;53.010;6.508;2024-03-08T07:22:12;29.80;;;18.58;;
76332;SDS011;71254;53.010;6.508;2024-03-08T07:24:37;32.53;;;19.52;;
76332;SDS011;71254;53.010;6.508;2024-03-08T07:27:14;35.25;;;20.98;;
76332;SDS011;71254;53.010;6.508;2024-03-08T07:29:39;32.60;;;19.67;;
76332;SDS011;71254;53.010;6.508;2024-03-08T07:32:05;31.45;;;18.80;;
76332;SDS011;71254;53.010;6.508;2024-03-08T07:34:50;32.85;;;19.33;;
76332;SDS011;71254;53.010;6.508;2024-03-08T07:37:16;29.25;;;18.65;;
76332;SDS011;71254;53.010;6.508;2024-03-08T07:39:43;31.88;;;19.70;;
76332;SDS011;71254;53.010;6.508;2024-03-08T07:42:08;27.60;;;18.20;;
76332;SDS011;71254;53.010;6.508;2024-03-08T07:44:35;26.73;;;17.85;;
76332;SDS011;71254;53.010;6.508;2024-03-08T07:47:00;27.27;;;17.98;;
76332;SDS011;71254;53.010;6.508;2024-03-08T07:49:26;29.58;;;19.52;;
76332;SDS011;71254;53.010;6.508;2024-03-08T07:51:51;28.10;;;18.27;;
76332;SDS011;71254;53.010;6.508;2024-03-08T07:54:17;30.95;;;21.02;;
76332;SDS011;71254;53.010;6.508;2024-03-08T07:56:43;29.67;;;18.60;;
76332;SDS011;71254;53.010;6.508;2024-03-08T07:59:08;28.05;;;18.67;;
76332;SDS011;71254;53.010;6.508;2024-03-08T08:01:36;28.13;;;19.40;;
76332;SDS011;71254;53.010;6.508;2024-03-08T08:04:01;26.25;;;18.05;;
76332;SDS011;71254;53.010;6.508;2024-03-08T08:06:27;26.92;;;18.85;;
76332;SDS011;71254;53.010;6.508;2024-03-08T08:08:56;25.70;;;18.35;;
76332;SDS011;71254;53.010;6.508;2024-03-08T08:11:22;28.55;;;18.38;;
76332;SDS011;71254;53.010;6.508;2024-03-08T08:13:48;27.27;;;19.90;;
76332;SDS011;71254;53.010;6.508;2024-03-08T08:16:13;28.17;;;19.83;;
76332;SDS011;71254;53.010;6.508;2024-03-08T08:18:39;30.27;;;19.77;;
76332;SDS011;71254;53.010;6.508;2024-03-08T08:21:05;27.13;;;18.40;;
76332;SDS011;71254;53.010;6.508;2024-03-08T08:23:32;26.80;;;19.13;;
76332;SDS011;71254;53.010;6.508;2024-03-08T08:25:57;22.95;;;17.55;;
76332;SDS011;71254;53.010;6.508;2024-03-08T08:28:23;28.33;;;21.02;;
76332;SDS011;71254;53.010;6.508;2024-03-08T08:30:49;25.88;;;19.17;;
76332;SDS011;71254;53.010;6.508;2024-03-08T08:33:15;25.45;;;19.20;;
76332;SDS011;71254;53.010;6.508;2024-03-08T08:35:41;27.13;;;19.88;;
76332;SDS011;71254;53.010;6.508;2024-03-08T08:38:07;25.50;;;18.90;;
76332;SDS011;71254;53.010;6.508;2024-03-08T08:40:33;27.13;;;19.70;;
76332;SDS011;71254;53.010;6.508;2024-03-08T08:43:01;27.00;;;19.65;;
76332;SDS011;71254;53.010;6.508;2024-03-08T08:45:29;27.17;;;20.42;;
76332;SDS011;71254;53.010;6.508;2024-03-08T08:47:58;25.55;;;20.00;;
76332;SDS011;71254;53.010;6.508;2024-03-08T08:50:27;26.87;;;20.97;;
76332;SDS011;71254;53.010;6.508;2024-03-08T08:52:53;25.80;;;19.65;;
76332;SDS011;71254;53.010;6.508;2024-03-08T08:55:19;27.38;;;20.95;;
76332;SDS011;71254;53.010;6.508;2024-03-08T08:57:51;28.27;;;20.63;;
76332;SDS011;71254;53.010;6.508;2024-03-08T09:00:21;28.60;;;20.10;;
76332;SDS011;71254;53.010;6.508;2024-03-08T09:02:49;29.08;;;21.27;;
76332;SDS011;71254;53.010;6.508;2024-03-08T09:05:16;28.27;;;21.13;;
76332;SDS011;71254;53.010;6.508;2024-03-08T09:07:42;30.65;;;20.95;;
76332;SDS011;71254;53.010;6.508;2024-03-08T09:10:11;26.50;;;19.88;;
76332;SDS011;71254;53.010;6.508;2024-03-08T09:12:40;30.38;;;21.00;;
76332;SDS011;71254;53.010;6.508;2024-03-08T09:15:06;28.10;;;20.38;;
76332;SDS011;71254;53.010;6.508;2024-03-08T09:17:38;30.60;;;20.80;;
76332;SDS011;71254;53.010;6.508;2024-03-08T09:20:09;28.45;;;20.13;;
76332;SDS011;71254;53.010;6.508;2024-03-08T09:25:05;29.17;;;19.90;;
76332;SDS011;71254;53.010;6.508;2024-03-08T09:27:32;27.02;;;19.42;;
76332;SDS011;71254;53.010;6.508;2024-03-08T09:29:59;30.85;;;20.05;;
76332;SDS011;71254;53.010;6.508;2024-03-08T09:32:24;29.13;;;20.70;;
76332;SDS011;71254;53.010;6.508;2024-03-08T09:34:51;30.67;;;20.15;;
76332;SDS011;71254;53.010;6.508;2024-03-08T09:37:17;30.85;;;20.35;;
76332;SDS011;71254;53.010;6.508;2024-03-08T09:39:43;28.95;;;19.90;;
76332;SDS011;71254;53.010;6.508;2024-03-08T09:42:10;33.65;;;20.25;;
76332;SDS011;71254;53.010;6.508;2024-03-08T09:44:39;36.10;;;22.45;;
76332;SDS011;71254;53.010;6.508;2024-03-08T09:47:09;34.25;;;22.70;;
76332;SDS011;71254;53.010;6.508;2024-03-08T09:49:38;34.83;;;21.25;;
76332;SDS011;71254;53.010;6.508;2024-03-08T09:52:05;31.83;;;19.85;;
76332;SDS011;71254;53.010;6.508;2024-03-08T09:54:32;33.28;;;20.48;;
76332;SDS011;71254;53.010;6.508;2024-03-08T09:57:03;32.95;;;21.45;;
76332;SDS011;71254;53.010;6.508;2024-03-08T09:59:29;28.38;;;20.42;;
76332;SDS011;71254;53.010;6.508;2024-03-08T10:02:00;30.20;;;21.30;;
76332;SDS011;71254;53.010;6.508;2024-03-08T10:04:29;31.65;;;20.92;;
76332;SDS011;71254;53.010;6.508;2024-03-08T10:06:58;32.92;;;20.77;;
76332;SDS011;71254;53.010;6.508;2024-03-08T10:09:24;32.15;;;21.00;;
76332;SDS011;71254;53.010;6.508;2024-03-08T10:11:55;34.47;;;22.25;;
76332;SDS011;71254;53.010;6.508;2024-03-08T10:14:23;32.08;;;21.45;;
76332;SDS011;71254;53.010;6.508;2024-03-08T10:16:49;34.20;;;21.30;;
76332;SDS011;71254;53.010;6.508;2024-03-08T10:19:17;34.38;;;22.17;;
76332;SDS011;71254;53.010;6.508;2024-03-08T10:21:52;29.15;;;20.55;;
76332;SDS011;71254;53.010;6.508;2024-03-08T10:24:24;29.77;;;21.42;;
76332;SDS011;71254;53.010;6.508;2024-03-08T10:26:58;33.80;;;21.40;;
76332;SDS011;71254;53.010;6.508;2024-03-08T10:29:25;31.75;;;21.13;;
76332;SDS011;71254;53.010;6.508;2024-03-08T10:31:51;32.45;;;20.85;;
76332;SDS011;71254;53.010;6.508;2024-03-08T10:34:16;31.05;;;20.52;;
76332;SDS011;71254;53.010;6.508;2024-03-08T10:36:42;33.42;;;21.85;;
76332;SDS011;71254;53.010;6.508;2024-03-08T10:41:52;30.20;;;21.17;;
76332;SDS011;71254;53.010;6.508;2024-03-08T10:52:36;29.73;;;22.10;;
76332;SDS011;71254;53.010;6.508;2024-03-08T10:55:02;31.90;;;23.27;;
76332;SDS011;71254;53.010;6.508;2024-03-08T10:57:28;28.90;;;21.27;;
76332;SDS011;71254;53.010;6.508;2024-03-08T10:59:56;31.63;;;20.92;;
76332;SDS011;71254;53.010;6.508;2024-03-08T11:02:23;28.70;;;22.45;;
76332;SDS011;71254;53.010;6.508;2024-03-08T11:04:52;28.80;;;21.05;;
76332;SDS011;71254;53.010;6.508;2024-03-08T11:07:21;28.20;;;21.48;;
76332;SDS011;71254;53.010;6.508;2024-03-08T11:09:48;26.45;;;20.88;;
76332;SDS011;71254;53.010;6.508;2024-03-08T11:12:27;25.92;;;21.85;;
76332;SDS011;71254;53.010;6.508;2024-03-08T11:14:55;28.55;;;21.95;;
76332;SDS011;71254;53.010;6.508;2024-03-08T11:19:54;28.35;;;21.35;;
76332;SDS011;71254;53.010;6.508;2024-03-08T11:22:28;29.33;;;22.40;;
76332;SDS011;71254;53.010;6.508;2024-03-08T11:25:01;27.10;;;22.20;;
76332;SDS011;71254;53.010;6.508;2024-03-08T11:27:31;27.30;;;22.13;;
76332;SDS011;71254;53.010;6.508;2024-03-08T11:30:02;25.13;;;21.48;;
76332;SDS011;71254;53.010;6.508;2024-03-08T11:32:44;24.75;;;20.23;;
76332;SDS011;71254;53.010;6.508;2024-03-08T11:35:20;23.70;;;20.27;;
76332;SDS011;71254;53.010;6.508;2024-03-08T11:37:48;27.15;;;21.48;;
76332;SDS011;71254;53.010;6.508;2024-03-08T11:40:14;26.75;;;21.70;;
76332;SDS011;71254;53.010;6.508;2024-03-08T11:42:44;26.65;;;21.27;;
76332;SDS011;71254;53.010;6.508;2024-03-08T11:45:12;28.10;;;21.98;;
76332;SDS011;71254;53.010;6.508;2024-03-08T11:47:41;29.98;;;22.95;;
76332;SDS011;71254;53.010;6.508;2024-03-08T11:50:07;28.00;;;21.60;;
76332;SDS011;71254;53.010;6.508;2024-03-08T11:52:36;28.87;;;21.43;;
76332;SDS011;71254;53.010;6.508;2024-03-08T11:55:04;26.30;;;21.00;;
76332;SDS011;71254;53.010;6.508;2024-03-08T11:57:34;28.17;;;21.95;;
76332;SDS011;71254;53.010;6.508;2024-03-08T12:00:01;31.40;;;21.88;;
76332;SDS011;71254;53.010;6.508;2024-03-08T12:02:31;29.42;;;21.25;;
76332;SDS011;71254;53.010;6.508;2024-03-08T12:04:57;30.83;;;22.23;;
76332;SDS011;71254;53.010;6.508;2024-03-08T12:07:25;30.20;;;21.92;;
76332;SDS011;71254;53.010;6.508;2024-03-08T12:12:44;29.70;;;21.13;;
76332;SDS011;71254;53.010;6.508;2024-03-08T12:15:21;27.95;;;20.73;;
76332;SDS011;71254;53.010;6.508;2024-03-08T12:17:49;30.00;;;20.85;;
76332;SDS011;71254;53.010;6.508;2024-03-08T12:20:22;29.40;;;20.33;;
76332;SDS011;71254;53.010;6.508;2024-03-08T12:22:51;28.70;;;20.42;;
76332;SDS011;71254;53.010;6.508;2024-03-08T12:25:25;28.17;;;20.13;;
76332;SDS011;71254;53.010;6.508;2024-03-08T12:27:51;28.65;;;20.52;;
76332;SDS011;71254;53.010;6.508;2024-03-08T12:32:51;30.90;;;21.15;;
76332;SDS011;71254;53.010;6.508;2024-03-08T12:35:22;33.70;;;21.35;;
76332;SDS011;71254;53.010;6.508;2024-03-08T12:37:52;29.08;;;21.20;;
76332;SDS011;71254;53.010;6.508;2024-03-08T12:40:25;27.92;;;19.17;;
76332;SDS011;71254;53.010;6.508;2024-03-08T12:42:56;31.95;;;19.58;;
76332;SDS011;71254;53.010;6.508;2024-03-08T12:45:25;29.10;;;20.77;;
76332;SDS011;71254;53.010;6.508;2024-03-08T12:47:52;28.67;;;21.00;;
76332;SDS011;71254;53.010;6.508;2024-03-08T12:50:19;28.25;;;20.15;;
76332;SDS011;71254;53.010;6.508;2024-03-08T12:52:45;23.20;;;19.63;;
76332;SDS011;71254;53.010;6.508;2024-03-08T12:55:10;26.45;;;19.08;;
76332;SDS011;71254;53.010;6.508;2024-03-08T12:57:37;27.98;;;22.10;;
76332;SDS011;71254;53.010;6.508;2024-03-08T13:00:03;25.83;;;21.15;;
76332;SDS011;71254;53.010;6.508;2024-03-08T13:02:30;25.88;;;21.58;;
76332;SDS011;71254;53.010;6.508;2024-03-08T13:04:58;25.70;;;21.50;;
76332;SDS011;71254;53.010;6.508;2024-03-08T13:07:24;25.27;;;20.35;;
76332;SDS011;71254;53.010;6.508;2024-03-08T13:09:52;22.55;;;20.00;;
76332;SDS011;71254;53.010;6.508;2024-03-08T13:12:19;22.83;;;18.77;;
76332;SDS011;71254;53.010;6.508;2024-03-08T13:14:45;22.33;;;19.80;;
76332;SDS011;71254;53.010;6.508;2024-03-08T13:17:12;23.80;;;20.23;;
76332;SDS011;71254;53.010;6.508;2024-03-08T13:19:38;23.30;;;20.35;;
76332;SDS011;71254;53.010;6.508;2024-03-08T13:22:04;22.20;;;19.83;;
76332;SDS011;71254;53.010;6.508;2024-03-08T13:24:30;21.55;;;18.63;;
76332;SDS011;71254;53.010;6.508;2024-03-08T13:26:55;24.38;;;19.40;;
76332;SDS011;71254;53.010;6.508;2024-03-08T13:29:22;20.30;;;17.80;;
76332;SDS011;71254;53.010;6.508;2024-03-08T13:31:48;22.98;;;19.63;;
76332;SDS011;71254;53.010;6.508;2024-03-08T13:34:17;25.30;;;19.00;;
76332;SDS011;71254;53.010;6.508;2024-03-08T13:36:43;21.23;;;18.02;;
76332;SDS011;71254;53.010;6.508;2024-03-08T13:39:10;21.88;;;17.98;;
76332;SDS011;71254;53.010;6.508;2024-03-08T13:41:43;22.65;;;20.02;;
76332;SDS011;71254;53.010;6.508;2024-03-08T13:44:10;22.08;;;19.45;;
76332;SDS011;71254;53.010;6.508;2024-03-08T13:46:35;22.85;;;19.45;;
76332;SDS011;71254;53.010;6.508;2024-03-08T13:49:05;20.83;;;18.67;;
76332;SDS011;71254;53.010;6.508;2024-03-08T13:51:33;21.42;;;17.98;;
76332;SDS011;71254;53.010;6.508;2024-03-08T13:53:59;23.60;;;19.52;;
76332;SDS011;71254;53.010;6.508;2024-03-08T13:56:25;21.88;;;19.00;;
76332;SDS011;71254;53.010;6.508;2024-03-08T13:58:52;22.60;;;19.13;;
76332;SDS011;71254;53.010;6.508;2024-03-08T14:01:17;20.83;;;18.45;;
76332;SDS011;71254;53.010;6.508;2024-03-08T14:03:43;20.90;;;18.60;;
76332;SDS011;71254;53.010;6.508;2024-03-08T14:06:09;22.33;;;19.70;;
76332;SDS011;71254;53.010;6.508;2024-03-08T14:08:35;20.20;;;17.92;;
76332;SDS011;71254;53.010;6.508;2024-03-08T14:11:04;21.15;;;17.98;;
76332;SDS011;71254;53.010;6.508;2024-03-08T14:13:43;22.17;;;19.08;;
76332;SDS011;71254;53.010;6.508;2024-03-08T14:16:12;21.35;;;19.05;;
76332;SDS011;71254;53.010;6.508;2024-03-08T14:18:38;21.98;;;18.50;;
76332;SDS011;71254;53.010;6.508;2024-03-08T14:21:04;21.00;;;17.80;;
76332;SDS011;71254;53.010;6.508;2024-03-08T14:23:30;22.63;;;18.67;;
76332;SDS011;71254;53.010;6.508;2024-03-08T14:26:00;21.20;;;18.40;;
76332;SDS011;71254;53.010;6.508;2024-03-08T14:28:26;21.40;;;18.48;;
76332;SDS011;71254;53.010;6.508;2024-03-08T14:30:54;22.95;;;19.20;;
76332;SDS011;71254;53.010;6.508;2024-03-08T14:33:20;20.80;;;18.23;;
76332;SDS011;71254;53.010;6.508;2024-03-08T14:35:46;18.50;;;16.45;;
76332;SDS011;71254;53.010;6.508;2024-03-08T14:38:12;19.15;;;16.77;;
76332;SDS011;71254;53.010;6.508;2024-03-08T14:40:38;24.27;;;17.58;;
76332;SDS011;71254;53.010;6.508;2024-03-08T14:43:04;19.00;;;17.00;;